Startpagina
METAR-TAF:

METAR-TAF

Vliegvelden :

Hambantota, Sri Lanka

breedte: 06-17-20N, lengte: 81-07-25E, hoogte: 48 m

Actueel weer

Dit bericht is 49 minuten geleden gemaakt, om 04:10 UTC
Wind 4 kt uit het noorden
Temperatuur 27°C
Vochtigheid 100%
Druk 1012 hPa
Zicht: 6000 m
Weinig wolken op 1800 ft
Gebroken wolken op 8000 ft

METAR: VCRI 100410Z 36004KT 6000 FEW018 BKN080 27/27 Q1012 NOSIG

Tijdstip: 10:29 (04:59 UTC)

Verwachting

Dit bericht is 5 uur en het 59 minuten geleden gemaakt, om 23:00 UTC
Verwachting geldig van 10 om 00 UTC tot 11 om 06 UTC
Wind 8 kt uit het noordnoordwesten
Zicht: 8000 m
Verspreide wolken op 1800 ft
lichte regenbuien
Tijdelijke
van 10 om 00 UTC tot 10 om 03 UTC
Zicht: 4000 m
nevel
Kans 40% :
Tijdelijke
van 10 om 06 UTC tot 10 om 13 UTC
Zicht: 5000 m
Gebroken wolken op 1600 ft
Weinig wolken op 2000 ft, Cumulonimbus.

TAF: VCRI 092300Z 1000/1106 33008KT 8000 -SHRA SCT018 TX29/1007Z TN23/1100Z TEMPO 1000/1003 4000 BR PROB40 TEMPO 1006/1013 5000 -TSRA/SHRA BKN016 FEW020CB

Waarnemingen en weersverwachtingen van meer dan 4000 vliegvelden (METAR en TAF).

De beschikbare stations zijn de gele en rode punten op de kaart.

Ga met uw muis naar het station om de naam te zien.

Klik dan om waarnemingen en weersverwachtingen te zien.

kaart wijzigen: klik op de groene knoppen met een zwart kruis om in te zoomen, op de groene knop met een streepje om uit te zoomen of op de groene pijlen voor aangrenzende kaarten.


METAR-TAF: